Time;durP1;ratioP1;P1;durP2;ratioP2;P2;SDS_P1;SDS_P2;PMS_P1;PMS_P2;Temp;Humidity;BMP_temperature;BMP_pressure;BME280_temperature;BME280_humidity;BME280_pressure;Samples;Min_cycle;Max_cycle;Signal;HPM_P1;HPM_P2
2023/04/24 00:02:56;;;;;;;6.25;3.55;;;;;;;12.97;84.79;100335.31;10299187;28;20050;-72
2023/04/24 00:07:57;;;;;;;4.57;3.13;;;;;;;12.91;85.58;100340.56;10298455;28;20070;-72
2023/04/24 00:12:58;;;;;;;5.68;3.20;;;;;;;12.87;85.66;100326.78;10299077;28;20043;-72
2023/04/24 00:18:01;;;;;;;6.50;3.28;;;;;;;12.72;86.21;100326.75;10298690;28;20100;-72
2023/04/24 00:23:01;;;;;;;3.63;3.00;;;;;;;12.27;86.46;100243.28;10298487;28;20046;-71
2023/04/24 00:28:02;;;;;;;4.22;2.78;;;;;;;12.68;87.13;100314.78;10299038;28;20131;-72
2023/04/24 00:33:03;;;;;;;7.55;2.70;;;;;;;12.38;86.72;100255.31;10297746;28;20077;-72
2023/04/24 00:38:04;;;;;;;5.13;2.38;;;;;;;12.59;87.21;100278.56;10298493;28;20181;-72
2023/04/24 00:43:05;;;;;;;4.03;2.53;;;;;;;12.36;86.86;100236.03;10297675;28;20126;-72
2023/04/24 00:48:07;;;;;;;3.88;2.58;;;;;;;12.45;86.87;100234.13;10297976;28;20142;-72
2023/04/24 00:53:08;;;;;;;3.97;2.47;;;;;;;12.34;86.85;100212.22;10297055;28;20415;-72
2023/04/24 00:58:09;;;;;;;3.42;2.30;;;;;;;12.79;86.97;100278.88;10297510;28;20069;-72
2023/04/24 01:03:10;;;;;;;3.13;2.47;;;;;;;12.77;87.16;100286.22;10297131;28;20568;-71
2023/04/24 01:08:11;;;;;;;4.60;2.40;;;;;;;12.67;87.65;100267.84;10297395;28;20051;-72
2023/04/24 01:13:13;;;;;;;3.40;2.30;;;;;;;12.68;87.14;100271.31;10279532;28;20050;-72
2023/04/24 01:18:15;;;;;;;3.83;2.33;;;;;;;12.38;87.53;100211.88;10302445;28;20030;-72
2023/04/24 01:23:16;;;;;;;3.35;2.30;;;;;;;12.47;87.32;100240.06;10337028;28;20050;-72
2023/04/24 01:28:18;;;;;;;4.40;2.35;;;;;;;12.33;87.34;100199.09;10336387;28;20046;-72
2023/04/24 01:33:21;;;;;;;3.92;2.28;;;;;;;12.85;87.93;100287.97;10336210;28;20093;-72
2023/04/24 01:38:22;;;;;;;4.17;2.13;;;;;;;12.46;87.29;100220.59;10317993;28;20089;-72
2023/04/24 01:43:24;;;;;;;4.55;2.70;;;;;;;12.84;87.76;100283.66;10336299;28;20375;-72
2023/04/24 01:48:25;;;;;;;3.45;2.47;;;;;;;11.94;87.64;100143.44;10335937;28;20058;-72
2023/04/24 01:53:26;;;;;;;4.68;2.75;;;;;;;12.44;88.12;100222.59;10334902;28;20125;-72
2023/04/24 01:58:27;;;;;;;3.78;2.55;;;;;;;12.29;88.16;100208.44;10334491;28;20133;-72
2023/04/24 02:03:28;;;;;;;4.00;2.83;;;;;;;12.75;88.60;100278.41;10317531;28;20038;-71
2023/04/24 02:08:28;;;;;;;4.57;3.10;;;;;;;12.73;88.64;100264.44;10335239;28;20049;-72
2023/04/24 02:13:29;;;;;;;4.90;3.25;;;;;;;12.64;88.94;100264.72;10332519;28;20042;-72
2023/04/24 02:18:30;;;;;;;5.57;3.45;;;;;;;12.23;88.87;100194.03;10333372;28;20038;-71
2023/04/24 02:23:31;;;;;;;5.10;3.13;;;;;;;12.76;89.46;100282.72;10333651;28;20047;-71
2023/04/24 02:28:31;;;;;;;4.90;3.55;;;;;;;12.73;89.67;100263.59;10334310;28;20049;-71
2023/04/24 02:33:32;;;;;;;5.07;3.30;;;;;;;12.27;89.77;100181.19;10333068;28;20038;-71
2023/04/24 02:38:33;;;;;;;4.75;3.05;;;;;;;12.58;90.07;100239.63;10327604;28;20054;-71
2023/04/24 02:43:34;;;;;;;7.47;3.65;;;;;;;12.76;89.98;100273.91;10293194;28;20039;-71
2023/04/24 02:48:35;;;;;;;4.43;3.53;;;;;;;12.75;90.57;100275.75;10292564;28;20055;-70
2023/04/24 02:53:35;;;;;;;5.28;3.92;;;;;;;12.24;90.84;100189.56;10292275;28;20048;-71
2023/04/24 02:58:36;;;;;;;8.98;3.92;;;;;;;12.69;91.77;100276.47;10289711;28;20101;-71
2023/04/24 03:03:38;;;;;;;5.65;3.83;;;;;;;12.65;92.49;100269.03;10285290;28;20146;-71
2023/04/24 03:08:39;;;;;;;5.35;3.65;;;;;;;12.20;91.98;100202.38;10285721;28;20188;-71
2023/04/24 03:13:40;;;;;;;6.60;3.78;;;;;;;12.74;91.88;100282.09;10286051;28;20097;-71
2023/04/24 03:18:40;;;;;;;4.90;3.75;;;;;;;12.86;92.37;100278.94;10286636;28;20043;-71
2023/04/24 03:23:41;;;;;;;5.70;3.50;;;;;;;12.89;92.13;100274.09;10269966;28;20050;-71
2023/04/24 03:28:42;;;;;;;7.53;3.53;;;;;;;12.92;91.82;100262.22;10289649;28;20049;-72
2023/04/24 03:33:43;;;;;;;13.88;3.35;;;;;;;12.76;91.62;100209.94;10282360;28;20406;-73
2023/04/24 03:38:43;;;;;;;9.25;2.97;;;;;;;12.70;91.21;100181.34;10267634;28;20457;-74
2023/04/24 03:43:44;;;;;;;7.82;2.75;;;;;;;13.23;91.34;100259.34;10251723;28;20043;-74
2023/04/24 03:48:45;;;;;;;6.40;2.97;;;;;;;12.79;91.42;100182.91;10291296;28;20050;-73
2023/04/24 03:53:46;;;;;;;8.23;3.10;;;;;;;13.22;91.74;100261.19;10274415;28;20050;-74
2023/04/24 03:58:47;;;;;;;4.05;2.50;;;;;;;13.24;91.99;100256.47;10252077;29;20409;-73
2023/04/24 04:03:47;;;;;;;4.35;2.60;;;;;;;13.29;92.06;100247.94;10250699;29;20067;-70
2023/04/24 04:08:48;;;;;;;5.45;2.90;;;;;;;13.40;91.58;100257.28;10250644;29;20501;-72
2023/04/24 04:13:49;;;;;;;4.95;2.47;;;;;;;13.53;90.77;100260.09;10251663;29;20043;-72
2023/04/24 04:18:50;;;;;;;5.18;2.50;;;;;;;13.64;90.14;100256.09;10251020;29;20043;-73
2023/04/24 04:23:51;;;;;;;6.07;2.47;;;;;;;13.67;90.35;100243.22;10250845;29;20039;-72
2023/04/24 04:28:53;;;;;;;10.93;3.00;;;;;;;13.66;90.41;100216.69;10250415;29;20457;-72
2023/04/24 04:33:53;;;;;;;3.33;2.10;;;;;;;13.51;89.85;100168.72;10251159;29;20039;-75
2023/04/24 04:38:54;;;;;;;4.05;2.78;;;;;;;14.13;89.53;100242.78;10249668;28;20043;-73
2023/04/24 04:43:58;;;;;;;3.47;2.65;;;;;;;13.81;89.12;100166.72;10239478;28;20039;-73
2023/04/24 04:49:01;;;;;;;3.97;2.75;;;;;;;14.35;88.47;100253.44;10281472;28;20054;-72
2023/04/24 04:54:02;;;;;;;6.20;3.05;;;;;;;14.50;88.13;100245.31;10281612;28;20043;-72
2023/04/24 04:59:02;;;;;;;4.60;2.60;;;;;;;14.72;87.58;100244.25;10274091;28;20050;-72
2023/04/24 05:04:03;;;;;;;4.15;2.55;;;;;;;14.88;85.94;100236.91;10257161;29;20047;-72
2023/04/24 05:09:04;;;;;;;5.05;2.55;;;;;;;14.66;84.92;100139.91;10256996;29;20039;-72
2023/04/24 05:14:05;;;;;;;7.97;4.72;;;;;;;15.38;82.84;100211.56;10256239;29;20051;-72
2023/04/24 05:19:06;;;;;;;9.65;7.05;;;;;;;15.52;80.78;100193.66;10256300;29;20098;-72
2023/04/24 05:24:07;;;;;;;10.23;6.22;;;;;;;15.81;80.49;100184.44;10256453;29;20041;-72
2023/04/24 05:29:07;;;;;;;9.27;6.65;;;;;;;16.04;79.52;100169.81;10256425;29;20039;-71
2023/04/24 05:34:09;;;;;;;7.78;5.63;;;;;;;15.66;78.19;100090.09;10255676;29;20043;-71
2023/04/24 05:39:10;;;;;;;8.63;4.68;;;;;;;16.03;78.18;100146.72;10255661;29;20122;-72
2023/04/24 05:44:11;;;;;;;11.35;4.30;;;;;;;16.26;77.63;100128.34;10255314;29;20142;-70
2023/04/24 05:49:11;;;;;;;11.10;4.38;;;;;;;16.52;77.02;100126.63;10255093;29;20045;-69
2023/04/24 05:54:12;;;;;;;6.28;3.88;;;;;;;16.75;76.43;100126.09;10254543;28;20059;-70
2023/04/24 05:59:13;;;;;;;5.15;3.80;;;;;;;17.06;74.71;100120.78;10255235;29;20503;-70
2023/04/24 06:04:14;;;;;;;5.95;3.15;;;;;;;17.05;73.87;100131.72;10255261;29;20410;-71
2023/04/24 06:09:16;;;;;;;4.97;3.00;;;;;;;17.12;72.41;100113.75;10254888;29;20534;-70
2023/04/24 06:14:17;;;;;;;4.60;3.30;;;;;;;17.40;71.70;100107.13;10254773;29;20039;-70
2023/04/24 06:19:18;;;;;;;6.15;3.03;;;;;;;17.87;70.96;100088.78;10253944;29;20170;-70
2023/04/24 06:24:18;;;;;;;5.88;3.25;;;;;;;17.59;69.85;100012.16;10254553;29;20043;-70
2023/04/24 06:29:19;;;;;;;6.25;3.70;;;;;;;17.98;69.45;100105.00;10253424;29;20419;-71
2023/04/24 06:34:20;;;;;;;5.15;3.65;;;;;;;18.03;69.83;100097.06;10253895;29;20050;-72
2023/04/24 06:39:21;;;;;;;6.30;3.97;;;;;;;18.75;68.58;100083.00;10253639;29;20036;-74
2023/04/24 06:44:22;;;;;;;6.90;4.50;;;;;;;19.17;66.26;100091.09;10253276;28;20071;-71
2023/04/24 06:49:22;;;;;;;9.23;4.95;;;;;;;18.78;66.65;100077.16;10252766;29;20055;-72
2023/04/24 06:54:23;;;;;;;6.10;4.38;;;;;;;18.98;65.90;100066.13;10252467;29;20051;-71
2023/04/24 06:59:24;;;;;;;7.03;4.35;;;;;;;19.25;64.46;100061.16;10252264;28;20035;-71
2023/04/24 07:04:26;;;;;;;6.50;3.90;;;;;;;18.41;64.34;100011.84;10252536;28;20077;-71
2023/04/24 07:09:26;;;;;;;6.70;3.92;;;;;;;18.58;63.83;100034.38;10252347;29;20040;-71
2023/04/24 07:14:27;;;;;;;6.13;3.25;;;;;;;18.79;63.74;99983.81;10251988;29;20521;-71
2023/04/24 07:19:28;;;;;;;4.88;2.90;;;;;;;19.41;62.01;99972.63;10252262;29;20527;-72
2023/04/24 07:24:29;;;;;;;9.18;3.05;;;;;;;19.80;59.91;100038.47;10252372;29;20075;-71
2023/04/24 07:29:30;;;;;;;4.53;3.00;;;;;;;19.90;60.47;100016.31;10252487;29;20122;-72
2023/04/24 07:34:31;;;;;;;7.90;3.42;;;;;;;20.03;58.53;99941.38;10251968;29;20129;-73
2023/04/24 07:39:32;;;;;;;5.97;3.20;;;;;;;20.39;58.51;99990.59;10251785;29;20043;-71
2023/04/24 07:44:32;;;;;;;5.03;3.20;;;;;;;20.65;57.88;100015.38;10250998;29;20084;-71
2023/04/24 07:49:34;;;;;;;4.05;2.75;;;;;;;19.99;58.78;99928.63;10251903;29;20074;-72
2023/04/24 07:54:36;;;;;;;5.07;3.13;;;;;;;20.73;57.72;99978.03;10251608;29;20047;-72
2023/04/24 07:59:37;;;;;;;10.90;3.10;;;;;;;20.97;57.57;99975.19;10251481;29;20043;-72
2023/04/24 08:04:38;;;;;;;7.47;3.35;;;;;;;20.52;57.06;99949.03;10251340;29;20444;-71
2023/04/24 08:09:39;;;;;;;5.00;2.80;;;;;;;20.41;57.48;99972.28;10250889;29;20043;-71
2023/04/24 08:14:40;;;;;;;10.15;3.40;;;;;;;20.71;56.95;99965.84;10251319;29;20047;-72
2023/04/24 08:19:47;;;;;;;4.05;2.60;;;;;;;20.70;57.00;99959.63;10257522;28;20046;-72
2023/04/24 08:24:49;;;;;;;5.68;2.38;;;;;;;20.46;56.51;99944.56;10258256;29;20043;-71
2023/04/24 08:29:50;;;;;;;6.22;2.90;;;;;;;20.16;56.63;99953.75;10258565;28;20518;-70
2023/04/24 08:34:52;;;;;;;5.15;2.47;;;;;;;20.25;56.40;99940.69;10258799;29;20106;-71
2023/04/24 08:39:53;;;;;;;3.75;2.20;;;;;;;20.29;56.01;99898.69;10257532;29;20109;-71
2023/04/24 08:44:54;;;;;;;4.82;2.58;;;;;;;20.59;55.66;99925.41;10257436;29;20166;-70
2023/04/24 08:49:56;;;;;;;4.32;2.13;;;;;;;20.48;55.93;99905.50;10257919;29;20043;-71
2023/04/24 08:54:58;;;;;;;6.45;2.22;;;;;;;20.83;55.07;99888.28;10257770;29;20051;-70
2023/04/24 09:00:00;;;;;;;4.97;2.35;;;;;;;21.03;54.24;99870.75;10257943;29;20043;-71
2023/04/24 09:05:02;;;;;;;3.58;2.30;;;;;;;21.60;53.67;99889.38;10256695;29;20416;-71
2023/04/24 09:10:04;;;;;;;7.35;2.70;;;;;;;21.38;53.68;99892.88;10257152;29;20566;-71
2023/04/24 09:15:08;;;;;;;4.63;2.75;;;;;;;21.12;54.22;99888.16;10256512;29;20106;-71
2023/04/24 09:20:08;;;;;;;10.15;2.60;;;;;;;21.41;53.27;99849.13;10256992;29;20491;-71
2023/04/24 09:25:12;;;;;;;3.92;2.53;;;;;;;21.36;52.25;99805.06;10255880;29;20051;-70
2023/04/24 09:30:13;;;;;;;7.68;2.42;;;;;;;21.75;51.73;99864.41;10254637;28;20043;-71
2023/04/24 09:35:15;;;;;;;8.68;2.58;;;;;;;21.63;51.58;99834.81;10256218;29;20071;-70
2023/04/24 09:40:20;;;;;;;11.43;2.30;;;;;;;21.87;52.12;99852.38;10255326;29;20105;-71
2023/04/24 09:45:21;;;;;;;4.30;2.30;;;;;;;21.71;51.79;99809.22;10255984;29;20494;-71
2023/04/24 09:50:22;;;;;;;3.78;2.40;;;;;;;21.64;52.00;99758.06;10255636;29;20051;-71
2023/04/24 09:55:24;;;;;;;5.35;2.45;;;;;;;22.21;51.75;99802.69;10255465;29;20054;-72
2023/04/24 10:00:30;;;;;;;3.20;1.98;;;;;;;22.47;50.58;99806.41;10255267;29;20072;-72
2023/04/24 10:05:32;;;;;;;3.78;2.30;;;;;;;22.58;50.29;99791.03;10255123;29;20039;-71
2023/04/24 10:10:38;;;;;;;3.47;2.00;;;;;;;22.49;48.84;99801.53;10254644;29;20055;-71
2023/04/24 10:15:40;;;;;;;8.07;2.63;;;;;;;22.63;50.68;99800.03;10254675;29;20054;-71
2023/04/24 10:20:41;;;;;;;4.68;2.40;;;;;;;22.56;50.33;99785.91;10253885;29;20038;-71
2023/04/24 10:25:42;;;;;;;9.13;2.25;;;;;;;22.70;49.58;99743.75;10253615;29;20043;-71
2023/04/24 10:30:43;;;;;;;5.25;2.70;;;;;;;23.02;50.01;99761.81;10254242;29;20450;-71
2023/04/24 10:35:48;;;;;;;12.48;2.38;;;;;;;23.08;48.93;99749.09;10253739;29;20075;-70
2023/04/24 10:40:49;;;;;;;9.68;2.53;;;;;;;23.06;49.38;99730.41;10253241;28;20094;-70
2023/04/24 10:46:19;;;;;;;5.90;1.90;;;;;;;23.61;48.74;99723.50;10253627;29;20106;-71
2023/04/24 10:51:22;;;;;;;8.57;2.65;;;;;;;22.73;48.81;99653.88;10251407;29;20043;-71
2023/04/24 10:56:23;;;;;;;10.23;2.60;;;;;;;22.98;49.38;99725.50;10253219;29;20070;-70
2023/04/24 11:01:26;;;;;;;6.20;2.20;;;;;;;22.87;49.58;99732.72;10253665;29;20056;-71
2023/04/24 11:06:35;;;;;;;4.80;2.40;;;;;;;22.62;49.81;99756.97;10252662;29;20054;-71
2023/04/24 11:11:39;;;;;;;13.77;2.55;;;;;;;22.32;50.83;99737.56;10252969;29;20275;-72
2023/04/24 11:16:54;;;;;;;5.05;1.92;;;;;;;22.23;51.13;99732.91;10251947;29;20094;-72
2023/04/24 11:22:02;;;;;;;8.63;2.55;;;;;;;21.94;51.30;99710.75;10252084;29;20047;-71
2023/04/24 11:27:03;;;;;;;7.00;1.90;;;;;;;22.18;51.37;99708.53;10251605;29;20094;-71
2023/04/24 11:32:27;;;;;;;8.70;2.25;;;;;;;22.38;50.43;99695.13;10251513;29;20347;-71
2023/04/24 11:37:39;;;;;;;5.53;2.50;;;;;;;22.22;50.37;99677.97;10251463;29;20039;-70
2023/04/24 11:42:42;;;;;;;7.35;2.60;;;;;;;22.13;50.48;99674.09;10251265;29;20047;-71
2023/04/24 11:47:44;;;;;;;8.27;2.60;;;;;;;21.80;50.99;99619.25;10252091;29;20063;-71
2023/04/24 11:52:50;;;;;;;8.02;2.85;;;;;;;21.97;50.26;99602.06;10255144;28;20101;-71
2023/04/24 11:57:59;;;;;;;7.15;2.78;;;;;;;22.09;50.08;99608.88;10260230;29;20528;-70
2023/04/24 12:03:11;;;;;;;12.60;3.00;;;;;;;22.45;50.56;99657.00;10259338;29;20050;-72
2023/04/24 12:08:11;;;;;;;8.68;2.35;;;;;;;22.47;50.03;99638.63;10258914;29;20086;-71
2023/04/24 12:13:13;;;;;;;7.47;2.40;;;;;;;22.44;49.22;99669.72;10253072;29;20082;-71
2023/04/24 12:18:16;;;;;;;13.05;2.40;;;;;;;22.49;49.56;99666.22;10259677;28;20126;-72
2023/04/24 12:23:33;;;;;;;;;;;;;;;22.83;48.72;99660.44;10257998;29;20070;-72
2023/04/24 12:28:38;;;;;;;11.50;2.28;;;;;;;22.38;50.32;99659.16;10258992;29;19954;-71
2023/04/24 12:33:38;;;;;;;10.00;2.20;;;;;;;22.15;50.30;99644.91;10260664;28;20524;-70
2023/04/24 12:38:40;;;;;;;11.57;2.70;;;;;;;21.86;50.40;99620.91;10264580;28;20046;-70
2023/04/24 12:43:54;;;;;;;13.07;2.13;;;;;;;21.62;50.64;99581.81;10257518;28;20050;-71
2023/04/24 12:48:55;;;;;;;11.10;4.50;;;;;;;22.03;50.35;99638.88;10257199;28;20090;-71
2023/04/24 12:53:56;;;;;;;13.27;2.13;;;;;;;21.92;51.23;99626.34;10258479;29;20096;-71
2023/04/24 12:58:57;;;;;;;8.63;2.10;;;;;;;21.83;51.46;99634.94;10258002;29;20039;-71
2023/04/24 13:03:58;;;;;;;9.23;2.10;;;;;;;21.74;51.99;99632.97;10254169;28;20055;-72
2023/04/24 13:08:58;;;;;;;19.63;2.60;;;;;;;21.61;51.79;99642.34;10256512;29;20535;-71
2023/04/24 13:13:59;;;;;;;13.93;2.10;;;;;;;21.45;52.27;99651.38;10257561;29;20043;-71
2023/04/24 13:19:01;;;;;;;14.73;2.33;;;;;;;21.37;52.71;99675.09;10256446;29;20039;-74
2023/04/24 13:24:04;;;;;;;12.80;2.30;;;;;;;21.17;52.78;99661.34;10248783;29;20089;-71
2023/04/24 13:29:05;;;;;;;14.80;2.17;;;;;;;20.94;52.84;99665.19;10255992;29;20051;-71
2023/04/24 13:34:06;;;;;;;12.35;1.65;;;;;;;20.50;52.25;99609.28;10255803;29;20040;-71
2023/04/24 13:39:07;;;;;;;15.88;2.70;;;;;;;20.62;52.61;99622.69;10255873;29;20043;-72
2023/04/24 13:44:07;;;;;;;8.38;1.80;;;;;;;20.98;52.82;99663.59;10256698;29;20149;-71
2023/04/24 13:49:08;;;;;;;8.88;1.90;;;;;;;21.03;52.75;99681.72;10255706;29;20063;-72
2023/04/24 13:54:09;;;;;;;12.93;2.63;;;;;;;20.98;52.82;99669.81;10255373;29;20515;-71
2023/04/24 13:59:12;;;;;;;13.90;1.80;;;;;;;21.15;52.30;99690.53;10255141;28;20062;-71
2023/04/24 14:04:13;;;;;;;9.07;1.50;;;;;;;21.17;52.42;99683.78;10278249;28;20047;-71
2023/04/24 14:09:14;;;;;;;8.95;1.77;;;;;;;21.02;52.37;99675.50;10262400;28;20035;-71
2023/04/24 14:14:15;;;;;;;16.17;2.30;;;;;;;20.86;52.18;99662.91;10293364;28;20039;-71
2023/04/24 14:19:16;;;;;;;14.52;2.42;;;;;;;20.79;52.04;99668.50;10275820;28;20048;-71
2023/04/24 14:24:17;;;;;;;12.63;2.53;;;;;;;20.18;52.13;99598.34;10255271;29;20043;-72
2023/04/24 14:29:19;;;;;;;29.42;12.73;;;;;;;20.60;52.69;99672.56;10276005;28;20039;-71
2023/04/24 14:34:20;;;;;;;76.15;37.28;;;;;;;20.58;52.72;99651.25;10293280;28;20043;-71
2023/04/24 14:39:21;;;;;;;32.83;10.63;;;;;;;20.42;53.28;99639.41;10293756;28;20434;-71
2023/04/24 14:44:21;;;;;;;15.63;4.05;;;;;;;20.34;53.15;99641.69;10294216;28;20086;-71
2023/04/24 14:49:23;;;;;;;18.38;3.40;;;;;;;20.30;53.60;99663.78;10293626;28;20126;-71
2023/04/24 14:54:25;;;;;;;17.23;2.25;;;;;;;20.22;54.12;99642.66;10275910;28;20125;-71
2023/04/24 14:59:25;;;;;;;43.35;2.80;;;;;;;20.29;54.20;99655.94;10293049;28;20403;-71
2023/04/24 15:04:27;;;;;;;23.23;2.90;;;;;;;20.19;55.57;99664.72;10292542;28;20270;-71
2023/04/24 15:09:28;;;;;;;18.95;2.55;;;;;;;19.55;56.02;99575.31;10292538;28;20050;-72
2023/04/24 15:14:30;;;;;;;22.00;2.15;;;;;;;19.29;56.40;99563.28;10291938;28;20043;-72
2023/04/24 15:19:31;;;;;;;45.10;11.05;;;;;;;19.69;56.96;99652.09;10250104;28;20047;-70
2023/04/24 15:24:31;;;;;;;26.60;5.88;;;;;;;19.56;58.20;99650.50;10264276;28;20038;-72
2023/04/24 15:29:32;;;;;;;26.60;5.18;;;;;;;18.97;58.60;99566.53;10259759;28;20054;-72
2023/04/24 15:34:34;;;;;;;22.60;6.35;;;;;;;19.34;59.97;99657.66;10291389;28;20046;-72
2023/04/24 15:39:34;;;;;;;28.58;6.90;;;;;;;19.08;61.00;99645.59;10254228;28;20043;-70
2023/04/24 15:44:35;;;;;;;32.63;6.57;;;;;;;18.88;60.95;99646.03;10254570;28;20063;-72
2023/04/24 15:49:36;;;;;;;39.42;5.85;;;;;;;18.66;61.59;99643.94;10255835;28;20075;-72
2023/04/24 15:54:38;;;;;;;68.95;11.45;;;;;;;18.20;62.15;99618.78;10289452;28;20517;-73
2023/04/24 15:59:39;;;;;;;54.05;9.88;;;;;;;18.23;63.26;99650.56;10280886;28;20039;-72
2023/04/24 16:04:40;;;;;;;28.80;6.28;;;;;;;18.07;63.65;99645.06;10291309;28;20051;-74
2023/04/24 16:09:40;;;;;;;40.20;6.82;;;;;;;17.88;64.58;99647.06;10283879;28;20043;-71
2023/04/24 16:14:41;;;;;;;35.72;5.97;;;;;;;17.43;64.96;99621.50;10283732;28;20074;-72
2023/04/24 16:19:42;;;;;;;40.60;5.38;;;;;;;17.64;65.39;99686.47;10271396;28;20054;-72
2023/04/24 16:24:45;;;;;;;20.05;4.43;;;;;;;17.12;65.98;99638.72;10250327;29;20491;-71
2023/04/24 16:29:46;;;;;;;27.83;4.20;;;;;;;17.26;66.54;99688.47;10251051;29;20054;-72
2023/04/24 16:34:47;;;;;;;34.92;8.20;;;;;;;16.92;66.97;99686.44;10283454;28;20766;-73
2023/04/24 16:39:48;;;;;;;29.98;4.63;;;;;;;16.68;68.29;99654.09;10294344;28;20125;-71
2023/04/24 16:44:48;;;;;;;26.58;7.68;;;;;;;16.80;68.86;99667.59;10297572;28;20070;-71
2023/04/24 16:49:49;;;;;;;41.20;13.40;;;;;;;16.25;69.66;99596.03;10282474;28;20430;-73
2023/04/24 16:54:50;;;;;;;57.50;20.42;;;;;;;16.65;69.69;99676.00;10259711;28;20078;-71
2023/04/24 16:59:51;;;;;;;52.63;14.63;;;;;;;15.92;70.41;99597.19;10278180;28;20051;-71
2023/04/24 17:04:51;;;;;;;26.73;6.93;;;;;;;16.33;71.24;99681.53;10266678;28;20065;-71
2023/04/24 17:09:52;;;;;;;38.53;7.57;;;;;;;16.37;71.32;99676.53;10293352;28;20047;-72
2023/04/24 17:14:53;;;;;;;30.83;7.35;;;;;;;16.40;71.44;99674.22;10273628;28;20043;-71
2023/04/24 17:19:54;;;;;;;103.30;26.70;;;;;;;15.94;71.99;99629.94;10256361;29;20514;-72
2023/04/24 17:24:55;;;;;;;30.13;10.63;;;;;;;16.42;72.18;99711.50;10272217;28;20042;-72
2023/04/24 17:29:55;;;;;;;51.30;16.73;;;;;;;16.25;72.69;99737.25;10256943;28;20039;-73
2023/04/24 17:34:56;;;;;;;43.53;14.27;;;;;;;15.96;73.09;99710.88;10280147;28;20177;-72
2023/04/24 17:39:57;;;;;;;46.78;14.63;;;;;;;16.02;73.58;99748.56;10296805;28;20070;-72
2023/04/24 17:44:58;;;;;;;40.13;14.38;;;;;;;15.71;74.78;99715.44;10295066;28;20059;-73
2023/04/24 17:49:58;;;;;;;44.42;13.85;;;;;;;15.51;75.27;99694.91;10283081;28;20495;-72
2023/04/24 17:55:00;;;;;;;48.08;14.73;;;;;;;15.28;75.59;99670.56;10282583;28;20047;-72
2023/04/24 18:00:00;;;;;;;55.05;15.93;;;;;;;15.40;76.39;99708.97;10255732;29;20069;-71
2023/04/24 18:05:01;;;;;;;85.78;33.50;;;;;;;15.52;76.71;99731.38;10261094;28;20410;-72
2023/04/24 18:10:02;;;;;;;90.45;36.80;;;;;;;15.40;77.14;99717.00;10294252;28;20039;-72
2023/04/24 18:15:04;;;;;;;66.22;27.02;;;;;;;15.37;77.78;99708.59;10294277;28;20042;-71
2023/04/24 18:20:05;;;;;;;54.88;24.23;;;;;;;15.45;77.41;99722.56;10294630;28;20046;-72
2023/04/24 18:25:06;;;;;;;51.58;20.58;;;;;;;15.02;77.48;99653.63;10295027;28;20079;-72
2023/04/24 18:30:10;;;;;;;42.53;16.55;;;;;;;15.19;78.21;99714.66;10275226;28;20047;-72
2023/04/24 18:35:10;;;;;;;42.73;18.13;;;;;;;14.89;78.69;99690.31;10254056;29;20039;-72
2023/04/24 18:40:14;;;;;;;41.85;15.05;;;;;;;14.89;79.81;99727.75;10252882;29;20089;-71
2023/04/24 18:45:15;;;;;;;37.20;14.52;;;;;;;14.39;79.65;99656.13;10236122;29;20062;-72
2023/04/24 18:50:15;;;;;;;34.17;11.82;;;;;;;14.69;79.32;99704.59;10251822;29;20055;-72
2023/04/24 18:55:16;;;;;;;31.38;12.07;;;;;;;14.57;79.54;99707.09;10233876;29;20122;-72
2023/04/24 19:00:17;;;;;;;26.08;10.38;;;;;;;13.97;79.98;99622.69;10234412;28;20054;-72
2023/04/24 19:05:18;;;;;;;28.35;8.32;;;;;;;14.56;80.33;99721.47;10249926;29;20063;-72
2023/04/24 19:10:19;;;;;;;24.00;7.00;;;;;;;14.41;80.49;99683.44;10252450;28;20585;-72
2023/04/24 19:15:20;;;;;;;20.58;6.45;;;;;;;14.63;80.71;99726.81;10274105;28;20047;-72
2023/04/24 19:20:21;;;;;;;16.45;5.20;;;;;;;14.68;80.41;99723.50;10250203;29;20039;-72
2023/04/24 19:25:21;;;;;;;30.33;6.25;;;;;;;14.63;80.57;99699.25;10250459;29;20046;-73
2023/04/24 19:30:22;;;;;;;21.17;6.28;;;;;;;14.79;80.75;99715.66;10250078;29;20087;-72
2023/04/24 19:35:23;;;;;;;29.40;6.07;;;;;;;14.86;80.67;99722.81;10249873;29;20527;-72
2023/04/24 19:40:24;;;;;;;22.55;6.18;;;;;;;14.60;81.21;99653.22;10249204;28;20391;-72
2023/04/24 19:45:24;;;;;;;16.00;5.97;;;;;;;15.00;81.94;99725.25;10205951;28;1290346;-73
2023/04/24 19:50:26;;;;;;;20.88;5.53;;;;;;;14.94;82.81;99726.09;10251611;28;20490;-73
2023/04/24 19:55:27;;;;;;;21.17;6.47;;;;;;;14.85;82.81;99695.28;10251535;29;20047;-74
2023/04/24 20:00:28;;;;;;;25.67;8.00;;;;;;;14.48;82.90;99627.28;10250196;28;20487;-72
2023/04/24 20:05:28;;;;;;;23.50;10.00;;;;;;;14.99;83.10;99698.72;10252055;29;20039;-73
2023/04/24 20:10:30;;;;;;;26.17;9.48;;;;;;;14.50;83.46;99630.59;10251115;29;20469;-73
2023/04/24 20:15:32;;;;;;;26.05;7.53;;;;;;;14.37;84.32;99618.91;10258906;28;20406;-73
2023/04/24 20:20:33;;;;;;;21.30;5.40;;;;;;;14.42;85.04;99642.34;10258453;29;20055;-73
2023/04/24 20:25:35;;;;;;;16.13;5.13;;;;;;;14.79;84.79;99693.44;10284928;28;20034;-71
2023/04/24 20:30:36;;;;;;;18.75;4.95;;;;;;;14.85;83.65;99697.94;10298422;28;20476;-72
2023/04/24 20:35:37;;;;;;;24.67;4.88;;;;;;;14.83;83.45;99700.00;10298572;28;20039;-73
2023/04/24 20:40:39;;;;;;;31.25;5.57;;;;;;;14.74;83.57;99701.25;10297612;28;20414;-73
2023/04/24 20:45:40;;;;;;;23.00;4.40;;;;;;;14.58;83.77;99673.97;10279976;28;20544;-72
2023/04/24 20:50:41;;;;;;;23.83;4.78;;;;;;;14.79;83.24;99698.78;10273054;28;20039;-71
2023/04/24 20:55:42;;;;;;;34.22;4.15;;;;;;;14.44;82.65;99634.09;10282829;28;20054;-71
2023/04/24 21:00:44;;;;;;;16.90;3.92;;;;;;;14.67;83.07;99668.41;10257058;29;20043;-72
2023/04/24 21:05:45;;;;;;;20.80;4.10;;;;;;;14.77;82.63;99666.91;10293919;28;20138;-72
2023/04/24 21:10:45;;;;;;;15.80;3.90;;;;;;;14.72;82.66;99650.69;10297290;28;20126;-73
2023/04/24 21:15:46;;;;;;;19.27;3.45;;;;;;;14.91;82.50;99681.06;10297384;28;20042;-73
2023/04/24 21:20:48;;;;;;;19.88;3.88;;;;;;;14.89;82.70;99682.28;10283765;28;20043;-72
2023/04/24 21:25:50;;;;;;;22.15;4.30;;;;;;;14.86;82.92;99696.09;10257066;28;20130;-74
2023/04/24 21:30:51;;;;;;;21.33;3.38;;;;;;;14.86;82.99;99688.88;10256705;29;20047;-72
2023/04/24 21:35:51;;;;;;;19.52;4.15;;;;;;;14.90;82.86;99698.13;10256098;29;20094;-73
2023/04/24 21:40:52;;;;;;;18.83;3.10;;;;;;;14.41;82.83;99624.66;10256517;29;20629;-72
2023/04/24 21:45:53;;;;;;;16.70;3.25;;;;;;;14.77;82.69;99698.16;10255124;29;20055;-71
2023/04/24 21:50:55;;;;;;;10.23;3.53;;;;;;;14.70;82.68;99703.53;10255254;29;20074;-74
2023/04/24 21:55:56;;;;;;;10.10;3.30;;;;;;;14.21;82.88;99621.22;10255137;29;20078;-72
2023/04/24 22:00:57;;;;;;;14.93;3.85;;;;;;;14.77;82.68;99703.53;10255712;29;20474;-71
2023/04/24 22:05:57;;;;;;;9.38;3.28;;;;;;;14.45;82.96;99635.72;10238707;29;20043;-72
2023/04/24 22:10:58;;;;;;;12.23;4.07;;;;;;;14.86;82.90;99696.91;10237449;29;20106;-72
2023/04/24 22:15:59;;;;;;;7.63;3.40;;;;;;;14.78;82.69;99681.13;10254173;29;20035;-71
2023/04/24 22:21:00;;;;;;;9.55;3.33;;;;;;;14.95;82.50;99687.59;10254527;29;20499;-72
2023/04/24 22:26:00;;;;;;;9.02;4.10;;;;;;;14.90;82.61;99681.25;10254519;29;20134;-71
2023/04/24 22:31:01;;;;;;;8.35;4.28;;;;;;;15.02;82.49;99700.97;10254350;29;20050;-73
2023/04/24 22:36:02;;;;;;;10.48;4.70;;;;;;;15.09;82.66;99712.44;10254552;28;20075;-72
2023/04/24 22:41:03;;;;;;;10.75;4.50;;;;;;;15.00;83.02;99709.19;10236755;29;20054;-72
2023/04/24 22:46:04;;;;;;;14.10;4.13;;;;;;;14.48;82.80;99633.47;10253436;29;20063;-74
2023/04/24 22:51:05;;;;;;;8.65;3.85;;;;;;;14.98;83.14;99729.16;10253493;29;20110;-72
2023/04/24 22:56:06;;;;;;;8.60;3.75;;;;;;;14.41;83.54;99646.03;10253960;29;20043;-72
2023/04/24 23:01:07;;;;;;;9.50;3.53;;;;;;;14.91;83.65;99734.53;10236248;29;20043;-72
2023/04/24 23:06:08;;;;;;;7.00;3.40;;;;;;;14.29;83.85;99645.03;10252618;29;20043;-72
2023/04/24 23:11:10;;;;;;;10.15;2.95;;;;;;;14.92;83.97;99741.50;10252229;29;20491;-73